Time;durP1;ratioP1;P1;durP2;ratioP2;P2;SDS_P1;SDS_P2;PMS_P1;PMS_P2;Temp;Humidity;BMP_temperature;BMP_pressure;BME280_temperature;BME280_humidity;BME280_pressure;Samples;Min_cycle;Max_cycle;Signal;HPM_P1;HPM_P2
2021/08/09 00:02:05;;;;;;;23.30;6.63;;;17.70;99.90;;;17.94;78.23;101128.47;5076168;28;20548;-85
2021/08/09 00:04:37;;;;;;;18.88;6.90;;;17.60;99.90;;;18.01;78.27;101127.34;5058400;28;20040;-83
2021/08/09 00:07:05;;;;;;;17.52;6.60;;;17.70;99.90;;;17.99;78.33;101121.16;5076160;28;20075;-83
2021/08/09 00:09:34;;;;;;;26.35;6.95;;;17.60;99.90;;;17.90;78.60;101124.13;5058049;28;20071;-84
2021/08/09 00:12:02;;;;;;;26.55;7.00;;;17.60;99.90;;;17.96;78.74;101126.63;5075890;28;20040;-84
2021/08/09 00:14:31;;;;;;;27.50;7.68;;;17.60;99.90;;;17.83;78.91;101120.75;5074783;28;20076;-85
2021/08/09 00:17:00;;;;;;;21.20;7.10;;;17.50;99.90;;;17.83;79.28;101130.56;5075730;28;20064;-85
2021/08/09 00:19:28;;;;;;;21.85;6.68;;;17.50;99.90;;;17.85;79.15;101131.41;5076203;28;20232;-83
2021/08/09 00:21:58;;;;;;;26.88;6.72;;;17.50;99.90;;;17.86;79.26;101139.41;5074672;28;20057;-84
2021/08/09 00:24:28;;;;;;;27.37;6.57;;;17.50;99.90;;;17.83;79.46;101134.13;5075707;28;20555;-83
2021/08/09 00:26:57;;;;;;;24.67;7.32;;;17.50;99.90;;;17.79;79.79;101129.78;5075963;28;20390;-85
2021/08/09 00:29:25;;;;;;;24.92;6.93;;;17.50;99.90;;;17.79;80.06;101134.25;5075836;28;20385;-84
2021/08/09 00:31:53;;;;;;;27.92;7.72;;;17.40;99.90;;;17.85;79.91;101140.31;5057822;28;20063;-85
2021/08/09 00:34:22;;;;;;;23.17;6.75;;;17.50;99.90;;;17.79;80.06;101136.94;5075657;28;20102;-84
2021/08/09 00:36:50;;;;;;;25.17;6.72;;;17.50;99.90;;;17.75;80.20;101135.28;5075677;28;20045;-85
2021/08/09 00:39:20;;;;;;;33.00;8.45;;;17.40;99.90;;;17.77;80.29;101136.09;5057442;28;20045;-84
2021/08/09 00:41:49;;;;;;;22.45;6.88;;;17.40;99.90;;;17.75;80.15;101124.59;5057724;28;20482;-85
2021/08/09 00:44:18;;;;;;;27.00;6.70;;;17.40;99.90;;;17.77;80.23;101133.41;5057716;28;20056;-85
2021/08/09 00:46:47;;;;;;;27.48;6.72;;;17.40;99.90;;;17.68;80.23;101131.03;5075639;28;20051;-84
2021/08/09 00:49:17;;;;;;;30.77;8.00;;;17.40;99.90;;;17.65;80.23;101125.78;5057810;28;20492;-84
2021/08/09 00:51:47;;;;;;;21.92;6.85;;;17.30;99.90;;;17.41;79.96;101075.63;5057585;28;20048;-84
2021/08/09 00:54:16;;;;;;;22.02;6.40;;;17.30;99.90;;;17.65;79.97;101139.16;5074219;28;20047;-85
2021/08/09 00:56:47;;;;;;;24.40;7.40;;;17.30;99.90;;;17.55;80.08;101121.59;5056996;28;20082;-87
2021/08/09 00:59:15;;;;;;;23.15;6.93;;;17.30;99.90;;;17.53;80.42;101135.03;5075264;28;20084;-85
2021/08/09 01:01:44;;;;;;;24.42;7.18;;;17.20;99.90;;;17.59;81.00;101133.97;5057291;28;20555;-83
2021/08/09 01:04:13;;;;;;;23.58;7.78;;;17.20;99.90;;;17.55;80.81;101129.63;5075478;28;20032;-84
2021/08/09 01:06:44;;;;;;;25.10;6.80;;;17.20;99.90;;;17.55;80.91;101143.88;5057191;28;20056;-85
2021/08/09 01:09:20;;;;;;;26.33;7.55;;;17.20;99.90;;;17.52;80.96;101140.41;5056897;28;20056;-84
2021/08/09 01:12:00;;;;;;;24.77;7.80;;;17.20;99.90;;;17.58;80.88;101135.75;5073784;28;20085;-84
2021/08/09 01:14:50;;;;;;;21.85;6.90;;;17.20;99.90;;;17.65;80.66;101142.69;5073722;28;20052;-84
2021/08/09 01:17:23;;;;;;;25.08;7.25;;;17.30;99.90;;;17.57;80.56;101130.47;5074729;28;20502;-85
2021/08/09 01:20:19;;;;;;;24.33;6.80;;;17.30;99.90;;;17.50;81.02;101136.94;5073519;28;20059;-86
2021/08/09 01:23:00;;;;;;;17.35;6.65;;;17.20;99.90;;;17.51;80.91;101138.66;5056898;28;20068;-83
2021/08/09 01:25:38;;;;;;;25.25;6.85;;;17.20;99.90;;;17.54;80.67;101149.25;5056575;28;20441;-84
2021/08/09 01:28:11;;;;;;;26.85;7.45;;;17.20;99.90;;;17.63;80.31;101157.03;5056863;28;20040;-82
2021/08/09 01:30:41;;;;;;;22.73;6.60;;;17.30;99.90;;;17.67;80.21;101158.72;5073371;28;20044;-84
2021/08/09 01:33:12;;;;;;;26.70;7.45;;;17.30;99.90;;;17.70;79.80;101159.50;5073415;28;20440;-84
2021/08/09 01:35:45;;;;;;;25.38;7.53;;;17.40;99.90;;;17.68;79.55;101163.13;5056557;28;20044;-84
2021/08/09 01:38:16;;;;;;;23.23;7.10;;;17.40;99.90;;;16.67;79.22;100990.41;5073124;28;20565;-83
2021/08/09 01:40:48;;;;;;;25.35;7.00;;;17.30;99.90;;;17.69;79.35;101159.56;5074851;28;20048;-84
2021/08/09 01:43:20;;;;;;;18.95;6.45;;;17.30;99.90;;;17.73;78.91;101158.53;5056607;28;20049;-84
2021/08/09 01:45:50;;;;;;;22.50;6.57;;;17.40;99.90;;;17.54;78.72;101149.25;5074549;28;20040;-84
2021/08/09 01:48:19;;;;;;;19.92;6.97;;;17.30;99.90;;;17.61;78.73;101172.25;5056541;28;20114;-84
2021/08/09 01:50:49;;;;;;;17.40;6.22;;;17.30;99.90;;;17.67;78.69;101167.59;5056439;28;20048;-83
2021/08/09 01:53:19;;;;;;;19.65;7.20;;;17.30;99.90;;;17.56;78.60;101153.66;5056438;28;20115;-84
2021/08/09 01:55:50;;;;;;;25.40;6.65;;;17.30;99.90;;;17.65;78.41;101166.75;5056183;28;20040;-84
2021/08/09 01:58:21;;;;;;;20.20;6.75;;;17.30;99.90;;;17.64;78.45;101167.69;5056468;28;20109;-84
2021/08/09 02:00:50;;;;;;;23.80;6.30;;;17.30;99.90;;;17.61;78.59;101162.44;5074264;28;20048;-84
2021/08/09 02:03:19;;;;;;;19.42;6.80;;;17.30;99.90;;;17.56;78.51;101174.16;5055936;28;20283;-83
2021/08/09 02:05:47;;;;;;;20.27;6.60;;;17.20;99.90;;;17.51;78.64;101173.44;5072956;28;20040;-84
2021/08/09 02:08:16;;;;;;;22.73;6.65;;;17.20;99.90;;;17.52;78.89;101175.19;5072679;28;20040;-84
2021/08/09 02:10:55;;;;;;;22.65;7.10;;;17.10;99.90;;;17.43;78.90;101162.03;5073914;28;20053;-84
2021/08/09 02:13:29;;;;;;;18.23;6.30;;;17.20;99.90;;;17.47;78.79;101185.09;5056220;28;20055;-84
2021/08/09 02:16:01;;;;;;;21.23;6.50;;;17.10;99.90;;;17.50;78.83;101177.91;5072827;28;20436;-83
2021/08/09 02:18:45;;;;;;;24.00;6.97;;;17.20;99.90;;;17.48;79.14;101186.88;5055808;28;20098;-85
2021/08/09 02:21:17;;;;;;;25.45;6.90;;;17.10;99.90;;;17.44;79.20;101172.69;5056293;28;20048;-83
2021/08/09 02:23:49;;;;;;;19.75;7.10;;;17.10;99.90;;;17.42;79.39;101179.88;5056564;28;20057;-84
2021/08/09 02:26:24;;;;;;;23.30;6.78;;;17.10;99.90;;;17.43;79.21;101164.72;5057257;28;20056;-84
2021/08/09 02:28:59;;;;;;;25.48;6.75;;;17.10;99.90;;;17.41;79.09;101182.59;5075458;28;20106;-83
2021/08/09 02:31:31;;;;;;;23.30;7.00;;;17.10;99.90;;;17.51;79.28;101189.50;5074310;28;20413;-84
2021/08/09 02:34:02;;;;;;;21.48;6.55;;;17.10;99.90;;;17.43;79.29;101172.72;5056198;28;20067;-83
2021/08/09 02:36:30;;;;;;;;;;;17.10;99.90;;;17.52;79.19;101183.19;5072634;28;20414;-83
2021/08/09 02:39:01;;;;;;;23.67;6.93;;;17.20;99.90;;;17.53;79.22;101193.00;5055479;28;19920;-84
2021/08/09 02:41:30;;;;;;;21.17;6.82;;;17.20;99.90;;;17.37;79.22;101159.53;5055696;28;20056;-84
2021/08/09 02:44:00;;;;;;;23.08;7.65;;;17.20;99.90;;;17.58;79.10;101177.69;5055684;28;20554;-84
2021/08/09 02:46:29;;;;;;;19.33;6.97;;;17.20;99.90;;;17.58;79.09;101165.19;5074098;28;20405;-84
2021/08/09 02:48:58;;;;;;;24.88;7.00;;;17.20;99.90;;;17.64;78.95;101174.84;5073619;28;20478;-83
2021/08/09 02:51:27;;;;;;;24.38;7.10;;;17.30;99.90;;;17.64;79.22;101180.19;5055626;28;20476;-83
2021/08/09 02:53:56;;;;;;;24.45;8.48;;;17.30;99.90;;;17.59;79.09;101166.97;5073844;28;20098;-83
2021/08/09 02:56:25;;;;;;;18.50;6.30;;;17.30;99.90;;;16.98;79.54;101087.53;5056012;28;20122;-82
2021/08/09 02:58:55;;;;;;;23.25;7.85;;;17.30;99.90;;;17.48;79.86;101176.19;5072978;28;20101;-82
2021/08/09 03:01:29;;;;;;;23.40;7.20;;;17.20;99.90;;;17.50;79.97;101164.53;5055819;28;20048;-84
2021/08/09 03:04:00;;;;;;;21.20;7.18;;;17.20;99.90;;;17.51;80.10;101174.31;5055789;28;20071;-83
2021/08/09 03:06:31;;;;;;;30.10;7.45;;;17.20;99.90;;;17.40;80.15;101181.72;5055886;28;20087;-84
2021/08/09 03:09:00;;;;;;;;;;;17.20;99.90;;;17.40;80.37;101183.53;5056341;28;20147;-83
2021/08/09 03:11:29;;;;;;;25.02;6.70;;;17.10;99.90;;;17.43;80.38;101178.97;5055500;28;19920;-84
2021/08/09 03:13:58;;;;;;;20.80;7.28;;;17.10;99.90;;;17.46;80.52;101178.88;5055501;28;20052;-84
2021/08/09 03:16:28;;;;;;;19.67;6.20;;;17.10;99.90;;;17.49;80.26;101176.16;5055461;28;20045;-83
2021/08/09 03:18:56;;;;;;;23.05;8.05;;;17.10;99.90;;;17.54;80.41;101181.34;5073784;28;20045;-84
2021/08/09 03:21:25;;;;;;;22.77;6.65;;;17.10;99.90;;;17.44;80.50;101177.19;5056258;28;20052;-85
2021/08/09 03:23:53;;;;;;;21.10;6.90;;;17.10;99.90;;;17.52;80.47;101177.84;5073795;28;20048;-86
2021/08/09 03:26:22;;;;;;;22.10;7.43;;;17.10;99.90;;;17.49;80.54;101181.50;5073733;28;20037;-84
2021/08/09 03:28:50;;;;;;;27.05;7.82;;;17.10;99.90;;;17.54;80.39;101184.03;5073780;28;20113;-84
2021/08/09 03:31:18;;;;;;;22.27;7.50;;;17.10;99.90;;;17.58;80.34;101185.72;5073618;28;20044;-83
2021/08/09 03:33:48;;;;;;;26.35;7.93;;;17.20;99.90;;;17.50;80.60;101179.72;5073374;28;20052;-84
2021/08/09 03:36:17;;;;;;;26.77;7.55;;;17.20;99.90;;;17.54;80.72;101184.03;5071907;28;20051;-85
2021/08/09 03:38:45;;;;;;;26.00;7.28;;;17.10;99.90;;;17.57;80.40;101179.50;5055203;28;20032;-84
2021/08/09 03:41:14;;;;;;;23.13;7.70;;;17.20;99.90;;;17.55;80.69;101176.00;5055082;28;20057;-84
2021/08/09 03:43:42;;;;;;;22.10;6.90;;;17.20;99.90;;;17.55;80.88;101175.09;5073525;28;20509;-84
2021/08/09 03:46:11;;;;;;;24.75;7.70;;;17.20;99.90;;;17.43;80.64;101160.25;5056113;28;20391;-85
2021/08/09 03:48:39;;;;;;;24.88;8.15;;;17.20;99.90;;;17.56;80.60;101185.75;5074490;28;20058;-84
2021/08/09 03:51:09;;;;;;;24.67;7.03;;;17.20;99.90;;;17.54;80.55;101184.91;5077223;28;20040;-84
2021/08/09 03:53:38;;;;;;;23.92;7.18;;;17.20;99.90;;;17.55;80.65;101183.13;5059101;28;20090;-84
2021/08/09 03:56:06;;;;;;;24.73;8.00;;;17.20;99.90;;;17.46;80.63;101186.88;5059021;28;20107;-83
2021/08/09 03:58:35;;;;;;;22.55;6.35;;;17.10;99.90;;;17.31;80.66;101154.34;5076284;28;20087;-83
2021/08/09 04:01:04;;;;;;;19.42;6.97;;;17.10;99.90;;;17.42;80.79;101179.88;5058671;28;20048;-85
2021/08/09 04:03:33;;;;;;;23.88;6.68;;;17.10;99.90;;;17.34;80.71;101179.22;5058604;28;20056;-83
2021/08/09 04:06:01;;;;;;;17.73;6.72;;;17.10;99.90;;;17.38;80.85;101199.59;5076432;28;20048;-85
2021/08/09 04:08:31;;;;;;;23.05;7.22;;;17.00;99.90;;;17.36;81.08;101193.44;5075346;28;20044;-85
2021/08/09 04:11:00;;;;;;;18.63;7.03;;;17.00;99.90;;;17.24;80.96;101177.72;5076495;28;20052;-87
2021/08/09 04:13:29;;;;;;;24.45;6.78;;;17.00;99.90;;;17.48;80.72;101205.59;5058107;28;20056;-83
2021/08/09 04:15:57;;;;;;;21.10;6.35;;;17.10;99.90;;;17.35;80.86;101204.16;5058216;28;20048;-80
2021/08/09 04:18:26;;;;;;;22.17;6.47;;;17.00;99.90;;;17.15;80.83;101175.25;5074872;28;20045;-81
2021/08/09 04:20:55;;;;;;;25.00;7.22;;;17.00;99.90;;;17.32;81.05;101201.56;5058049;28;20505;-82
2021/08/09 04:23:23;;;;;;;19.95;5.97;;;17.00;99.90;;;17.28;80.97;101202.56;5058342;28;20402;-78
2021/08/09 04:25:53;;;;;;;18.90;6.13;;;16.90;99.90;;;17.32;80.94;101207.81;5058115;28;20106;-78
2021/08/09 04:28:22;;;;;;;18.70;6.37;;;16.90;99.90;;;17.32;80.68;101205.13;5058040;28;20045;-81
2021/08/09 04:30:50;;;;;;;20.48;6.63;;;17.00;99.90;;;17.34;80.48;101208.66;5057958;28;20672;-76
2021/08/09 04:33:19;;;;;;;21.73;6.60;;;17.00;99.90;;;17.31;80.47;101206.03;5057884;28;20049;-80
2021/08/09 04:35:58;;;;;;;18.38;6.43;;;17.00;99.90;;;17.36;80.49;101205.91;5057839;28;20098;-80
2021/08/09 04:38:27;;;;;;;24.50;6.20;;;17.00;99.90;;;17.34;80.40;101197.06;5057555;28;20048;-80
2021/08/09 04:40:57;;;;;;;17.77;6.00;;;17.00;99.90;;;17.32;80.61;101201.56;5057266;28;20142;-80
2021/08/09 04:43:26;;;;;;;22.58;5.85;;;17.00;99.90;;;17.32;80.19;101207.81;5057701;28;20052;-81
2021/08/09 04:45:54;;;;;;;20.33;6.40;;;17.00;99.90;;;17.28;80.36;101211.47;5057664;28;20478;-80
2021/08/09 04:48:24;;;;;;;21.13;6.18;;;16.90;99.90;;;17.27;80.40;101216.84;5057679;28;20383;-80
2021/08/09 04:50:53;;;;;;;23.98;6.22;;;16.90;99.90;;;17.23;80.50;101208.03;5057577;28;20040;-81
2021/08/09 04:53:22;;;;;;;16.17;6.00;;;16.90;99.90;;;17.25;80.67;101211.53;5057161;28;20079;-80
2021/08/09 04:55:50;;;;;;;18.88;5.72;;;16.90;99.90;;;17.07;80.64;101204.00;5075405;28;20102;-79
2021/08/09 04:58:20;;;;;;;20.38;6.07;;;16.90;99.90;;;17.25;80.85;101208.88;5075346;28;20068;-80
2021/08/09 05:00:51;;;;;;;16.70;5.85;;;16.90;99.90;;;17.33;80.47;101208.66;5056648;28;20083;-80
2021/08/09 05:03:19;;;;;;;22.00;6.50;;;16.90;99.90;;;17.20;80.71;101200.09;5075227;28;20446;-79
2021/08/09 05:05:49;;;;;;;20.67;6.10;;;17.00;99.90;;;17.35;80.59;101210.38;5057335;28;20060;-79
2021/08/09 05:08:19;;;;;;;25.75;6.75;;;17.00;99.90;;;17.33;80.79;101211.34;5056932;28;20048;-80
2021/08/09 05:10:47;;;;;;;27.45;6.95;;;17.00;99.90;;;17.17;80.94;101173.44;5075317;28;20067;-80
2021/08/09 05:13:16;;;;;;;17.75;6.28;;;17.00;99.90;;;17.39;80.80;101208.50;5057542;28;20409;-80
2021/08/09 05:15:46;;;;;;;22.20;6.45;;;17.00;99.90;;;17.45;80.68;101211.00;5057006;28;20052;-80
2021/08/09 05:18:15;;;;;;;14.90;5.57;;;17.10;99.90;;;17.48;80.67;101203.81;5057060;28;20259;-80
2021/08/09 05:20:44;;;;;;;20.95;5.75;;;17.20;99.90;;;17.51;80.61;101208.22;5057135;28;20458;-80
2021/08/09 05:23:14;;;;;;;26.08;6.95;;;17.20;99.90;;;17.57;80.76;101205.38;5074123;28;20053;-80
2021/08/09 05:25:43;;;;;;;15.05;5.60;;;17.20;99.90;;;17.62;80.49;101200.75;5057024;28;20048;-80
2021/08/09 05:28:11;;;;;;;16.48;6.88;;;17.30;99.90;;;17.73;80.32;101202.22;5074943;28;20045;-80
2021/08/09 05:30:42;;;;;;;18.15;6.40;;;17.40;99.90;;;17.84;80.25;101215.31;5075215;28;20051;-80
2021/08/09 05:33:12;;;;;;;14.88;5.65;;;17.40;99.90;;;17.86;79.99;101224.16;5075036;28;20052;-80
2021/08/09 05:35:41;;;;;;;17.33;6.30;;;17.50;99.90;;;17.88;79.90;101217.84;5056985;28;20053;-80
2021/08/09 05:38:10;;;;;;;15.60;5.38;;;17.50;99.90;;;17.91;79.73;101227.56;5056944;28;20154;-80
2021/08/09 05:40:41;;;;;;;16.23;5.80;;;17.60;99.90;;;17.95;79.54;101226.56;5057167;28;20064;-79
2021/08/09 05:43:11;;;;;;;13.00;5.47;;;17.60;99.90;;;18.00;79.29;101233.53;5059821;28;20045;-80
2021/08/09 05:45:39;;;;;;;19.40;5.43;;;17.70;99.90;;;17.93;79.06;101223.06;5080635;28;20577;-80
2021/08/09 05:48:08;;;;;;;18.38;6.53;;;17.70;99.90;;;17.91;78.85;101222.22;5062454;28;20102;-80
2021/08/09 05:50:38;;;;;;;15.80;5.40;;;17.70;99.90;;;18.02;78.72;101215.63;5079590;28;20045;-80
2021/08/09 05:53:08;;;;;;;21.38;5.80;;;17.70;99.90;;;17.99;78.67;101229.13;5076739;28;20036;-80
2021/08/09 05:55:38;;;;;;;14.32;5.72;;;17.70;99.90;;;18.18;78.48;101233.91;5076574;28;20123;-80
2021/08/09 05:58:10;;;;;;;12.48;5.00;;;17.80;99.90;;;18.24;77.62;101234.63;5057239;28;20044;-80
2021/08/09 06:00:40;;;;;;;;;;;17.90;99.90;;;18.28;77.29;101238.97;5075514;28;20043;-80
2021/08/09 06:03:16;;;;;;;15.88;5.88;;;17.90;99.90;;;18.31;77.30;101221.94;5057039;28;19963;-81
2021/08/09 06:05:55;;;;;;;16.67;5.50;;;18.00;99.90;;;18.41;77.05;101234.97;5057054;28;20135;-81
2021/08/09 06:08:29;;;;;;;18.70;5.45;;;18.00;99.90;;;18.46;76.55;101218.81;5056858;28;20478;-82
2021/08/09 06:10:59;;;;;;;15.35;5.13;;;18.20;99.90;;;18.49;75.64;101219.59;5074610;28;20041;-81
2021/08/09 06:13:27;;;;;;;12.05;5.43;;;18.20;99.90;;;18.72;75.43;101241.19;5074625;28;20060;-81
2021/08/09 06:15:57;;;;;;;16.45;5.22;;;18.30;99.90;;;18.75;74.63;101237.53;5056517;28;20406;-81
2021/08/09 06:18:29;;;;;;;14.02;4.53;;;18.40;99.90;;;18.79;74.53;101241.88;5056265;28;20211;-82
2021/08/09 06:20:58;;;;;;;13.77;5.18;;;18.40;99.90;;;18.97;73.91;101240.41;5055981;28;20055;-82
2021/08/09 06:23:29;;;;;;;14.27;5.22;;;18.60;99.90;;;18.93;73.67;101218.16;5056054;28;20044;-83
2021/08/09 06:25:57;;;;;;;12.32;4.65;;;18.60;99.90;;;19.19;73.16;101239.63;5072318;28;20139;-81
2021/08/09 06:28:28;;;;;;;15.32;5.00;;;18.80;99.90;;;19.24;72.82;101251.06;5073709;28;20075;-80
2021/08/09 06:31:00;;;;;;;12.45;4.47;;;18.90;99.90;;;18.78;72.48;101139.13;5072363;28;20068;-80
2021/08/09 06:33:28;;;;;;;12.70;4.60;;;19.00;99.90;;;19.26;71.62;101248.34;5056112;28;20443;-80
2021/08/09 06:35:58;;;;;;;11.45;4.72;;;19.00;99.90;;;19.43;70.98;101246.88;5055847;28;20509;-80
2021/08/09 06:38:28;;;;;;;11.93;4.07;;;19.10;99.90;;;19.52;71.31;101248.34;5055539;28;20047;-80
2021/08/09 06:40:56;;;;;;;13.23;4.95;;;19.10;99.90;;;19.71;71.30;101255.69;5055569;28;20056;-85
2021/08/09 06:43:27;;;;;;;;;;;19.30;99.90;;;19.25;70.82;101136.59;5074095;28;20449;-81
2021/08/09 06:45:59;;;;;;;10.35;4.32;;;19.50;99.90;;;19.99;70.70;101242.16;5072388;28;19920;-74
2021/08/09 06:48:27;;;;;;;12.80;5.18;;;19.60;99.90;;;19.83;69.83;101230.22;5055347;28;20048;-73
2021/08/09 06:50:58;;;;;;;16.42;4.68;;;19.50;99.90;;;19.81;69.94;101245.50;5055286;28;20050;-75
2021/08/09 06:53:27;;;;;;;11.95;4.38;;;19.40;99.90;;;19.61;70.36;101240.84;5055070;28;20517;-74
2021/08/09 06:55:55;;;;;;;12.00;5.22;;;19.30;99.90;;;19.49;70.54;101254.69;5055187;28;20508;-74
2021/08/09 06:58:27;;;;;;;12.10;4.90;;;19.20;99.90;;;19.26;71.46;101259.09;5055268;28;20136;-74
2021/08/09 07:00:56;;;;;;;10.98;4.22;;;18.90;99.90;;;19.13;72.24;101241.63;5055263;28;20048;-74
2021/08/09 07:03:25;;;;;;;9.50;4.32;;;18.80;99.90;;;18.97;73.47;101246.63;5055212;28;20044;-82
2021/08/09 07:05:54;;;;;;;10.00;4.70;;;18.60;99.90;;;18.78;74.41;101224.91;5072034;28;20494;-82
2021/08/09 07:08:27;;;;;;;14.20;5.85;;;18.60;99.90;;;18.87;75.05;101255.91;5055150;28;20052;-81
2021/08/09 07:10:56;;;;;;;13.98;4.93;;;18.50;99.90;;;18.90;75.57;101259.38;5055283;28;20379;-84
2021/08/09 07:13:25;;;;;;;10.70;4.10;;;18.50;99.90;;;18.88;75.75;101247.81;5055621;28;20131;-82
2021/08/09 07:15:54;;;;;;;11.02;4.82;;;18.50;99.90;;;18.91;75.99;101255.75;5055256;28;20490;-84
2021/08/09 07:18:23;;;;;;;9.23;4.47;;;18.50;99.90;;;18.93;75.79;101263.72;5055107;28;20561;-85
2021/08/09 07:20:53;;;;;;;10.82;4.88;;;18.60;99.90;;;18.98;76.17;101252.88;5055183;28;20041;-85
2021/08/09 07:23:21;;;;;;;13.50;4.70;;;18.60;99.90;;;18.93;76.05;101256.56;5055514;28;20048;-85
2021/08/09 07:25:52;;;;;;;7.85;4.63;;;18.60;99.90;;;19.00;75.89;101259.94;5059233;28;20052;-83
2021/08/09 07:28:21;;;;;;;9.32;4.75;;;18.70;99.90;;;18.48;75.98;101179.47;5059445;28;20098;-84
2021/08/09 07:30:50;;;;;;;9.23;4.40;;;18.60;99.90;;;18.89;75.45;101254.91;5059125;28;20441;-82
2021/08/09 07:33:18;;;;;;;10.90;4.25;;;18.60;99.90;;;18.86;75.37;101248.78;5058996;28;20044;-77
2021/08/09 07:35:47;;;;;;;9.55;4.63;;;18.60;99.90;;;18.82;75.57;101257.84;5059845;28;20051;-85
2021/08/09 07:38:15;;;;;;;12.82;4.50;;;18.60;99.90;;;18.85;75.14;101260.44;5059198;28;20383;-85
2021/08/09 07:40:44;;;;;;;9.50;4.70;;;18.50;99.90;;;18.78;75.34;101235.63;5058519;28;20421;-79
2021/08/09 07:43:14;;;;;;;13.63;5.30;;;18.50;99.90;;;18.63;75.01;101230.75;5075444;28;20044;-83
2021/08/09 07:45:42;;;;;;;13.40;4.90;;;18.50;99.90;;;18.84;75.52;101258.66;5058864;28;20102;-84
2021/08/09 07:48:15;;;;;;;16.38;6.35;;;18.50;99.90;;;19.00;76.33;101264.41;5059245;28;20459;-84
2021/08/09 07:50:44;;;;;;;15.15;5.30;;;18.60;99.90;;;18.93;75.07;101258.38;5059201;28;20054;-83
2021/08/09 07:53:14;;;;;;;11.63;4.97;;;18.60;99.90;;;18.83;75.51;101252.44;5058908;28;20076;-86
2021/08/09 07:55:44;;;;;;;15.38;5.00;;;18.60;99.90;;;18.95;75.46;101252.97;5059162;28;20040;-85
2021/08/09 07:58:15;;;;;;;12.40;5.00;;;18.60;99.90;;;18.98;75.52;101252.88;5058739;28;20052;-85
2021/08/09 08:00:43;;;;;;;8.90;4.22;;;18.70;99.90;;;18.81;75.54;101232.81;5058750;28;20045;-80
2021/08/09 08:03:12;;;;;;;10.57;4.63;;;18.70;99.90;;;18.89;75.44;101244.19;5058604;28;20413;-79
2021/08/09 08:05:45;;;;;;;11.02;4.70;;;18.60;99.90;;;19.00;75.47;101249.22;5058443;28;20057;-78
2021/08/09 08:08:14;;;;;;;11.45;5.05;;;18.70;99.90;;;19.04;75.96;101228.53;5058260;28;20441;-81
2021/08/09 08:10:42;;;;;;;13.77;5.43;;;18.80;99.90;;;19.14;75.14;101254.13;5076346;28;20102;-80
2021/08/09 08:13:11;;;;;;;12.48;4.95;;;18.80;99.90;;;19.09;74.30;101242.66;5074950;28;20072;-80
2021/08/09 08:15:41;;;;;;;11.65;5.20;;;18.80;99.90;;;19.04;74.69;101247.31;5075142;28;20144;-77
2021/08/09 08:18:11;;;;;;;13.07;5.15;;;18.80;99.90;;;19.03;74.94;101240.19;5058402;28;20055;-83
2021/08/09 08:20:40;;;;;;;12.43;5.38;;;18.80;99.90;;;19.03;74.45;101243.75;5076321;28;20048;-80
2021/08/09 08:23:09;;;;;;;12.02;4.28;;;18.80;99.90;;;19.08;73.90;101243.59;5058214;28;20140;-82
2021/08/09 08:25:37;;;;;;;11.88;4.78;;;18.80;99.90;;;18.88;73.74;101239.78;5076468;28;20402;-81
2021/08/09 08:28:06;;;;;;;15.80;5.32;;;18.80;99.90;;;18.93;73.70;101243.16;5057601;28;20049;-77
2021/08/09 08:30:35;;;;;;;17.73;5.40;;;18.70;99.90;;;18.69;75.02;101225.22;5057496;28;20101;-77
2021/08/09 08:33:10;;;;;;;12.90;5.07;;;18.60;99.90;;;18.73;74.75;101251.00;5057657;28;20048;-81
2021/08/09 08:35:39;;;;;;;11.88;5.60;;;18.60;99.90;;;18.75;75.03;101250.94;5056567;28;20064;-81
2021/08/09 08:38:07;;;;;;;10.65;5.20;;;18.50;99.90;;;18.77;75.36;101255.34;5075611;28;20115;-81
2021/08/09 08:40:47;;;;;;;10.63;4.55;;;18.50;99.90;;;18.77;75.45;101247.28;5057526;28;20148;-83
2021/08/09 08:43:20;;;;;;;11.15;5.40;;;18.50;99.90;;;18.60;75.81;101302.34;5057376;28;20143;-82
2021/08/09 08:45:56;;;;;;;11.93;5.35;;;18.50;99.90;;;18.69;75.75;101268.09;5057569;28;20056;-80
2021/08/09 08:48:29;;;;;;;8.68;5.53;;;18.50;99.90;;;18.54;76.20;101257.81;5057738;28;20049;-84
2021/08/09 08:51:21;;;;;;;9.85;5.45;;;18.40;99.90;;;18.67;75.98;101264.59;5057480;28;20102;-78
2021/08/09 08:53:50;;;;;;;12.25;5.28;;;18.40;99.90;;;18.72;76.44;101262.63;5058241;28;20066;-83
2021/08/09 08:56:18;;;;;;;10.77;4.75;;;18.40;99.90;;;18.78;77.02;101265.09;5077274;28;20118;-83
2021/08/09 08:58:47;;;;;;;9.80;5.53;;;18.50;99.90;;;18.86;77.25;101270.22;5058843;28;20053;-86
2021/08/09 09:01:35;;;;;;;8.65;5.20;;;18.50;99.90;;;18.92;77.09;101267.34;5076405;28;20044;-85
2021/08/09 09:04:26;;;;;;;10.32;5.65;;;18.60;99.90;;;18.94;76.87;101268.19;5075398;28;20052;-81
2021/08/09 09:06:59;;;;;;;11.73;5.43;;;18.60;99.90;;;18.86;77.46;101280.94;5075213;28;20106;-80
2021/08/09 09:09:29;;;;;;;8.73;5.05;;;18.60;99.90;;;18.88;77.71;101269.25;5076074;28;20525;-81
2021/08/09 09:11:58;;;;;;;9.38;4.65;;;18.60;99.90;;;18.84;77.22;101274.75;5075523;28;20052;-84
2021/08/09 09:14:30;;;;;;;16.25;5.32;;;18.50;99.90;;;18.88;77.30;101274.63;5075010;28;20478;-80
2021/08/09 09:17:00;;;;;;;9.75;5.00;;;18.60;99.90;;;18.84;78.07;101278.31;5075189;28;20113;-83
2021/08/09 09:19:36;;;;;;;8.93;5.03;;;18.60;99.90;;;18.79;77.32;101258.81;5074708;28;20079;-81
2021/08/09 09:22:07;;;;;;;8.13;5.28;;;18.60;99.90;;;18.91;77.56;101263.78;5075430;28;20450;-79
2021/08/09 09:24:37;;;;;;;9.15;5.22;;;18.60;99.90;;;18.95;77.24;101271.75;5074957;28;20110;-80
2021/08/09 09:27:09;;;;;;;8.07;5.20;;;18.60;99.90;;;18.77;76.65;101287.50;5074800;28;20056;-81
2021/08/09 09:29:39;;;;;;;7.65;4.63;;;18.50;99.90;;;18.80;77.53;101276.66;5074910;28;20052;-79
2021/08/09 09:32:16;;;;;;;10.57;5.18;;;18.50;99.90;;;18.87;77.70;101266.63;5074740;28;20098;-78
2021/08/09 09:34:49;;;;;;;11.73;4.82;;;18.50;99.90;;;18.86;78.52;101248.78;5074380;28;20048;-78
2021/08/09 09:37:29;;;;;;;8.27;4.93;;;18.60;99.90;;;19.00;77.71;101275.16;5056571;28;20075;-86
2021/08/09 09:40:06;;;;;;;8.82;5.22;;;18.70;99.90;;;19.10;77.72;101273.91;5074581;28;20056;-86
2021/08/09 09:42:37;;;;;;;8.40;4.68;;;18.70;99.90;;;19.10;76.54;101277.50;5074832;28;20049;-82
2021/08/09 09:45:23;;;;;;;7.72;4.90;;;18.80;99.90;;;19.26;77.02;101280.53;5074637;28;20044;-84
2021/08/09 09:48:03;;;;;;;10.20;5.65;;;18.90;99.90;;;19.41;77.05;101270.22;5073193;28;20106;-83
2021/08/09 09:50:35;;;;;;;9.95;4.95;;;19.00;99.90;;;19.42;76.59;101277.31;5074394;28;20058;-83
2021/08/09 09:53:17;;;;;;;7.90;4.30;;;19.10;99.90;;;19.48;76.74;101292.31;5074510;28;20041;-83
2021/08/09 09:55:48;;;;;;;6.18;4.22;;;19.20;99.90;;;19.34;73.96;101252.53;5074201;28;20489;-84
2021/08/09 09:58:18;;;;;;;6.13;4.25;;;19.20;99.90;;;19.51;74.20;101284.19;5074345;28;20101;-88
2021/08/09 10:00:47;;;;;;;5.35;3.92;;;19.20;99.90;;;19.48;73.26;101281.59;5074536;28;20123;-89
2021/08/09 10:03:16;;;;;;;10.35;4.70;;;19.20;99.90;;;19.40;73.42;101275.59;5073913;28;20196;-80
2021/08/09 10:05:47;;;;;;;7.10;4.18;;;19.20;99.90;;;19.43;73.06;101278.19;5073794;28;20041;-80
2021/08/09 10:08:18;;;;;;;9.35;4.90;;;19.20;99.90;;;19.55;73.80;101278.63;5073876;28;20044;-86
2021/08/09 10:10:47;;;;;;;6.75;4.45;;;19.20;99.90;;;19.75;74.27;101278.81;5056215;28;20398;-80
2021/08/09 10:13:19;;;;;;;7.33;4.73;;;19.40;99.90;;;19.84;73.11;101301.75;5074053;28;20037;-85
2021/08/09 10:15:51;;;;;;;5.30;3.95;;;19.50;99.90;;;19.82;72.55;101268.75;5073984;28;20048;-85
2021/08/09 10:18:29;;;;;;;7.63;4.32;;;19.60;99.90;;;19.85;72.22;101275.81;5073992;28;20068;-80
2021/08/09 10:21:00;;;;;;;7.57;4.00;;;19.60;99.90;;;19.72;71.45;101275.38;5073605;28;20044;-82
2021/08/09 10:23:42;;;;;;;8.50;4.55;;;19.50;99.90;;;19.76;72.51;101274.34;5073769;28;20041;-82